sensor_id;sensor_type;location;lat;lon;timestamp;pressure;altitude;pressure_sealevel;temperature;humidity
55486;BME280;49383;-25.924;28.194;2023-04-26T00:00:50;85311.95;;;24.27;30.35
55486;BME280;49383;-25.924;28.194;2023-04-26T00:03:16;85308.59;;;24.05;30.34
55486;BME280;49383;-25.924;28.194;2023-04-26T00:05:41;85309.38;;;24.26;30.35
55486;BME280;49383;-25.924;28.194;2023-04-26T00:08:07;85308.50;;;24.03;30.36
55486;BME280;49383;-25.924;28.194;2023-04-26T00:10:32;85307.50;;;24.25;30.36
55486;BME280;49383;-25.924;28.194;2023-04-26T00:12:58;85309.93;;;24.26;30.36
55486;BME280;49383;-25.924;28.194;2023-04-26T00:15:24;85309.84;;;24.03;30.36
55486;BME280;49383;-25.924;28.194;2023-04-26T00:17:49;85310.43;;;24.02;30.38
55486;BME280;49383;-25.924;28.194;2023-04-26T00:20:15;85312.93;;;24.25;30.38
55486;BME280;49383;-25.924;28.194;2023-04-26T00:22:40;85314.51;;;24.01;30.37
55486;BME280;49383;-25.924;28.194;2023-04-26T00:25:06;85314.08;;;24.23;30.38
55486;BME280;49383;-25.924;28.194;2023-04-26T00:27:31;85312.84;;;24.00;30.40
55486;BME280;49383;-25.924;28.194;2023-04-26T00:29:57;85308.59;;;24.21;30.41
55486;BME280;49383;-25.924;28.194;2023-04-26T00:32:22;85305.76;;;23.99;30.39
55486;BME280;49383;-25.924;28.194;2023-04-26T00:34:48;85304.02;;;24.20;30.42
55486;BME280;49383;-25.924;28.194;2023-04-26T00:37:14;85302.86;;;24.42;30.42
55486;BME280;49383;-25.924;28.194;2023-04-26T00:39:39;85305.20;;;24.20;30.42
55486;BME280;49383;-25.924;28.194;2023-04-26T00:42:05;85309.51;;;23.97;30.43
55486;BME280;49383;-25.924;28.194;2023-04-26T00:44:30;85307.84;;;24.40;30.43
55486;BME280;49383;-25.924;28.194;2023-04-26T00:46:56;85307.33;;;24.40;30.43
55486;BME280;49383;-25.924;28.194;2023-04-26T00:49:24;85304.07;;;23.95;30.45
55486;BME280;49383;-25.924;28.194;2023-04-26T00:51:47;85304.77;;;23.93;30.45
55486;BME280;49383;-25.924;28.194;2023-04-26T00:54:14;85301.29;;;24.15;30.46
55486;BME280;49383;-25.924;28.194;2023-04-26T00:56:39;85301.30;;;23.93;30.46
55486;BME280;49383;-25.924;28.194;2023-04-26T00:59:04;85299.44;;;23.92;30.46
55486;BME280;49383;-25.924;28.194;2023-04-26T01:01:30;85297.04;;;24.14;30.45
55486;BME280;49383;-25.924;28.194;2023-04-26T01:03:56;85297.17;;;24.35;30.47
55486;BME280;49383;-25.924;28.194;2023-04-26T01:06:23;85294.79;;;23.90;30.48
55486;BME280;49383;-25.924;28.194;2023-04-26T01:08:46;85295.76;;;23.89;30.49
55486;BME280;49383;-25.924;28.194;2023-04-26T01:11:12;85291.88;;;24.11;30.48
55486;BME280;49383;-25.924;28.194;2023-04-26T01:13:38;85290.96;;;24.32;30.50
55486;BME280;49383;-25.924;28.194;2023-04-26T01:16:03;85288.59;;;24.32;30.50
55486;BME280;49383;-25.924;28.194;2023-04-26T01:18:28;85288.18;;;24.10;30.50
55486;BME280;49383;-25.924;28.194;2023-04-26T01:20:53;85284.69;;;24.09;30.52
55486;BME280;49383;-25.924;28.194;2023-04-26T01:23:18;85287.23;;;23.86;30.52
55486;BME280;49383;-25.924;28.194;2023-04-26T01:25:44;85287.08;;;24.06;30.54
55486;BME280;49383;-25.924;28.194;2023-04-26T01:28:09;85287.94;;;24.07;30.53
55486;BME280;49383;-25.924;28.194;2023-04-26T01:30:35;85289.79;;;23.84;30.54
55486;BME280;49383;-25.924;28.194;2023-04-26T01:33:00;85291.34;;;24.05;30.55
55486;BME280;49383;-25.924;28.194;2023-04-26T01:35:26;85292.41;;;24.05;30.54
55486;BME280;49383;-25.924;28.194;2023-04-26T01:37:51;85292.92;;;23.82;30.55
55486;BME280;49383;-25.924;28.194;2023-04-26T01:40:21;85293.11;;;23.81;30.55
55486;BME280;49383;-25.924;28.194;2023-04-26T01:42:42;85293.28;;;24.03;30.56
55486;BME280;49383;-25.924;28.194;2023-04-26T01:45:08;85294.23;;;23.81;30.55
55486;BME280;49383;-25.924;28.194;2023-04-26T01:47:33;85298.17;;;24.02;30.57
55486;BME280;49383;-25.924;28.194;2023-04-26T01:49:58;85299.42;;;23.80;30.56
55486;BME280;49383;-25.924;28.194;2023-04-26T01:52:24;85301.19;;;24.01;30.59
55486;BME280;49383;-25.924;28.194;2023-04-26T01:54:50;85299.00;;;23.79;30.58
55486;BME280;49383;-25.924;28.194;2023-04-26T01:57:15;85299.48;;;24.23;30.60
55486;BME280;49383;-25.924;28.194;2023-04-26T01:59:41;85299.95;;;24.00;30.58
55486;BME280;49383;-25.924;28.194;2023-04-26T02:02:07;85301.29;;;23.78;30.60
55486;BME280;49383;-25.924;28.194;2023-04-26T02:04:32;85302.59;;;23.77;30.60
55486;BME280;49383;-25.924;28.194;2023-04-26T02:06:58;85305.17;;;23.98;30.61
55486;BME280;49383;-25.924;28.194;2023-04-26T02:09:23;85306.53;;;23.97;30.62
55486;BME280;49383;-25.924;28.194;2023-04-26T02:11:49;85308.48;;;23.74;30.61
55486;BME280;49383;-25.924;28.194;2023-04-26T02:14:14;85311.48;;;23.97;30.62
55486;BME280;49383;-25.924;28.194;2023-04-26T02:16:40;85312.24;;;24.18;30.62
55486;BME280;49383;-25.924;28.194;2023-04-26T02:19:05;85313.58;;;24.18;30.64
55486;BME280;49383;-25.924;28.194;2023-04-26T02:21:31;85316.13;;;23.95;30.64
55486;BME280;49383;-25.924;28.194;2023-04-26T02:23:56;85317.75;;;23.94;30.65
55486;BME280;49383;-25.924;28.194;2023-04-26T02:26:22;85317.44;;;23.93;30.66
55486;BME280;49383;-25.924;28.194;2023-04-26T02:28:47;85318.53;;;23.93;30.65
55486;BME280;49383;-25.924;28.194;2023-04-26T02:31:13;85315.56;;;23.92;30.66
55486;BME280;49383;-25.924;28.194;2023-04-26T02:33:38;85317.86;;;24.14;30.66
55486;BME280;49383;-25.924;28.194;2023-04-26T02:36:07;85316.47;;;23.70;30.65
55486;BME280;49383;-25.924;28.194;2023-04-26T02:38:31;85315.97;;;23.92;30.66
55486;BME280;49383;-25.924;28.194;2023-04-26T02:40:58;85318.87;;;23.68;30.67
55486;BME280;49383;-25.924;28.194;2023-04-26T02:43:22;85322.52;;;23.90;30.69
55486;BME280;49383;-25.924;28.194;2023-04-26T02:45:46;85322.50;;;23.89;30.69
55486;BME280;49383;-25.924;28.194;2023-04-26T02:48:11;85322.84;;;23.66;30.69
55486;BME280;49383;-25.924;28.194;2023-04-26T02:50:37;85319.66;;;23.66;30.69
55486;BME280;49383;-25.924;28.194;2023-04-26T02:53:02;85323.08;;;24.10;30.70
55486;BME280;49383;-25.924;28.194;2023-04-26T02:55:27;85323.58;;;23.88;30.70
55486;BME280;49383;-25.924;28.194;2023-04-26T02:57:52;85322.83;;;23.87;30.70
55486;BME280;49383;-25.924;28.194;2023-04-26T03:00:18;85319.08;;;23.86;30.71
55486;BME280;49383;-25.924;28.194;2023-04-26T03:02:43;85321.98;;;23.84;30.72
55486;BME280;49383;-25.924;28.194;2023-04-26T03:05:09;85323.34;;;23.84;30.73
55486;BME280;49383;-25.924;28.194;2023-04-26T03:07:35;85322.07;;;23.84;30.73
55486;BME280;49383;-25.924;28.194;2023-04-26T03:10:00;85322.56;;;23.84;30.74
55486;BME280;49383;-25.924;28.194;2023-04-26T03:12:25;85324.82;;;24.05;30.73
55486;BME280;49383;-25.924;28.194;2023-04-26T03:14:51;85324.65;;;23.60;30.74
55486;BME280;49383;-25.924;28.194;2023-04-26T03:17:16;85325.24;;;23.81;30.75
55486;BME280;49383;-25.924;28.194;2023-04-26T03:19:42;85327.93;;;23.80;30.75
55486;BME280;49383;-25.924;28.194;2023-04-26T03:22:07;85328.68;;;23.80;30.75
55486;BME280;49383;-25.924;28.194;2023-04-26T03:24:32;85329.61;;;24.03;30.74
55486;BME280;49383;-25.924;28.194;2023-04-26T03:26:58;85332.94;;;24.02;30.76
55486;BME280;49383;-25.924;28.194;2023-04-26T03:29:23;85337.45;;;24.00;30.76
55486;BME280;49383;-25.924;28.194;2023-04-26T03:31:49;85344.14;;;24.00;30.77
55486;BME280;49383;-25.924;28.194;2023-04-26T03:34:14;85348.50;;;23.78;30.77
55486;BME280;49383;-25.924;28.194;2023-04-26T03:36:40;85349.75;;;24.00;30.78
55486;BME280;49383;-25.924;28.194;2023-04-26T03:39:05;85352.27;;;23.99;30.79
55486;BME280;49383;-25.924;28.194;2023-04-26T03:41:31;85352.71;;;23.54;30.79
55486;BME280;49383;-25.924;28.194;2023-04-26T03:43:56;85352.03;;;23.98;30.79
55486;BME280;49383;-25.924;28.194;2023-04-26T03:46:21;85351.02;;;23.53;30.79
55486;BME280;49383;-25.924;28.194;2023-04-26T03:48:47;85350.91;;;23.52;30.80
55486;BME280;49383;-25.924;28.194;2023-04-26T03:51:13;85352.67;;;23.97;30.80
55486;BME280;49383;-25.924;28.194;2023-04-26T03:53:38;85354.90;;;23.74;30.80
55486;BME280;49383;-25.924;28.194;2023-04-26T03:56:04;85356.07;;;23.51;30.81
55486;BME280;49383;-25.924;28.194;2023-04-26T03:58:29;85358.42;;;23.95;30.81
55486;BME280;49383;-25.924;28.194;2023-04-26T04:00:56;85361.66;;;23.95;30.82
55486;BME280;49383;-25.924;28.194;2023-04-26T04:03:21;85366.50;;;23.97;30.79
55486;BME280;49383;-25.924;28.194;2023-04-26T04:05:45;85373.03;;;23.95;30.80
55486;BME280;49383;-25.924;28.194;2023-04-26T04:08:11;85382.23;;;23.94;30.82
55486;BME280;49383;-25.924;28.194;2023-04-26T04:10:36;85381.02;;;23.70;30.83
55486;BME280;49383;-25.924;28.194;2023-04-26T04:13:02;85381.28;;;23.92;30.84
55486;BME280;49383;-25.924;28.194;2023-04-26T04:15:28;85387.16;;;23.69;30.84
55486;BME280;49383;-25.924;28.194;2023-04-26T04:17:54;85389.77;;;23.47;30.84
55486;BME280;49383;-25.924;28.194;2023-04-26T04:20:19;85391.37;;;23.91;30.83
55486;BME280;49383;-25.924;28.194;2023-04-26T04:22:44;85393.54;;;23.90;30.84
55486;BME280;49383;-25.924;28.194;2023-04-26T04:25:09;85392.76;;;23.88;30.85
55486;BME280;49383;-25.924;28.194;2023-04-26T04:27:35;85394.92;;;23.65;30.86
55486;BME280;49383;-25.924;28.194;2023-04-26T04:30:02;85395.07;;;23.65;30.86
55486;BME280;49383;-25.924;28.194;2023-04-26T04:32:26;85396.97;;;23.86;30.86
55486;BME280;49383;-25.924;28.194;2023-04-26T04:34:51;85401.84;;;23.86;30.86
55486;BME280;49383;-25.924;28.194;2023-04-26T04:37:16;85402.81;;;23.86;30.87
55486;BME280;49383;-25.924;28.194;2023-04-26T04:39:41;85402.02;;;23.85;30.87
55486;BME280;49383;-25.924;28.194;2023-04-26T04:42:06;85405.34;;;23.63;30.87
55486;BME280;49383;-25.924;28.194;2023-04-26T04:44:32;85404.61;;;23.86;30.87
55486;BME280;49383;-25.924;28.194;2023-04-26T04:46:57;85404.10;;;23.86;30.87
55486;BME280;49383;-25.924;28.194;2023-04-26T04:49:23;85405.93;;;23.86;30.86
55486;BME280;49383;-25.924;28.194;2023-04-26T04:51:52;85409.02;;;23.88;30.87
55486;BME280;49383;-25.924;28.194;2023-04-26T04:54:16;85409.30;;;23.67;30.86
55486;BME280;49383;-25.924;28.194;2023-04-26T04:56:40;85412.49;;;23.69;30.84
55486;BME280;49383;-25.924;28.194;2023-04-26T04:59:05;85415.09;;;23.94;30.82
55486;BME280;49383;-25.924;28.194;2023-04-26T05:01:31;85416.82;;;23.97;30.82
55486;BME280;49383;-25.924;28.194;2023-04-26T05:03:56;85420.84;;;23.78;30.82
55486;BME280;49383;-25.924;28.194;2023-04-26T05:06:21;85424.59;;;24.04;30.85
55486;BME280;49383;-25.924;28.194;2023-04-26T05:08:47;85426.99;;;23.63;30.83
55486;BME280;49383;-25.924;28.194;2023-04-26T05:11:12;85432.71;;;23.68;30.81
55486;BME280;49383;-25.924;28.194;2023-04-26T05:13:38;85437.67;;;23.73;30.78
55486;BME280;49383;-25.924;28.194;2023-04-26T05:16:04;85441.83;;;23.78;30.70
55486;BME280;49383;-25.924;28.194;2023-04-26T05:18:29;85447.98;;;23.84;30.75
55486;BME280;49383;-25.924;28.194;2023-04-26T05:20:55;85452.60;;;23.89;30.67
55486;BME280;49383;-25.924;28.194;2023-04-26T05:23:20;85457.51;;;23.93;30.65
55486;BME280;49383;-25.924;28.194;2023-04-26T05:25:45;85462.76;;;23.99;30.62
55486;BME280;49383;-25.924;28.194;2023-04-26T05:28:10;85467.02;;;24.05;30.58
55486;BME280;49383;-25.924;28.194;2023-04-26T05:30:36;85469.64;;;24.10;30.56
55486;BME280;49383;-25.924;28.194;2023-04-26T05:33:01;85475.94;;;24.15;30.54
55486;BME280;49383;-25.924;28.194;2023-04-26T05:35:27;85480.01;;;24.20;30.50
55486;BME280;49383;-25.924;28.194;2023-04-26T05:37:52;85486.06;;;24.25;30.46
55486;BME280;49383;-25.924;28.194;2023-04-26T05:40:17;85487.62;;;24.31;30.43
55486;BME280;49383;-25.924;28.194;2023-04-26T05:42:42;85487.55;;;24.09;30.40
55486;BME280;49383;-25.924;28.194;2023-04-26T05:45:09;85491.46;;;24.16;30.39
55486;BME280;49383;-25.924;28.194;2023-04-26T05:47:33;85495.07;;;23.99;30.36
55486;BME280;49383;-25.924;28.194;2023-04-26T05:49:59;85497.83;;;24.27;30.33
55486;BME280;49383;-25.924;28.194;2023-04-26T05:52:24;85498.49;;;24.32;30.32
55486;BME280;49383;-25.924;28.194;2023-04-26T05:54:50;85500.34;;;24.36;30.34
55486;BME280;49383;-25.924;28.194;2023-04-26T05:57:15;85501.38;;;24.39;30.32
55486;BME280;49383;-25.924;28.194;2023-04-26T05:59:40;85500.71;;;24.45;30.33
55486;BME280;49383;-25.924;28.194;2023-04-26T06:02:06;85503.11;;;24.51;30.28
55486;BME280;49383;-25.924;28.194;2023-04-26T06:04:31;85505.72;;;24.35;30.27
55486;BME280;49383;-25.924;28.194;2023-04-26T06:06:57;85507.84;;;24.65;30.22
55486;BME280;49383;-25.924;28.194;2023-04-26T06:09:22;85507.69;;;24.46;30.22
55486;BME280;49383;-25.924;28.194;2023-04-26T06:11:48;85511.69;;;24.54;30.21
55486;BME280;49383;-25.924;28.194;2023-04-26T06:14:13;85510.90;;;24.61;30.15
55486;BME280;49383;-25.924;28.194;2023-04-26T06:16:39;85512.93;;;24.75;30.02
55486;BME280;49383;-25.924;28.194;2023-04-26T06:19:04;85513.88;;;24.55;30.03
55486;BME280;49383;-25.924;28.194;2023-04-26T06:21:30;85515.92;;;24.91;29.99
55486;BME280;49383;-25.924;28.194;2023-04-26T06:23:55;85513.64;;;24.97;29.96
55486;BME280;49383;-25.924;28.194;2023-04-26T06:26:21;85515.81;;;25.04;29.93
55486;BME280;49383;-25.924;28.194;2023-04-26T06:28:46;85520.02;;;25.11;29.90
55486;BME280;49383;-25.924;28.194;2023-04-26T06:31:12;85524.88;;;24.88;29.88
55486;BME280;49383;-25.924;28.194;2023-04-26T06:33:37;85526.25;;;24.75;29.84
55486;BME280;49383;-25.924;28.194;2023-04-26T06:36:03;85524.51;;;25.31;29.81
55486;BME280;49383;-25.924;28.194;2023-04-26T06:38:29;85527.50;;;25.40;29.78
55486;BME280;49383;-25.924;28.194;2023-04-26T06:40:55;85528.52;;;24.90;29.81
55486;BME280;49383;-25.924;28.194;2023-04-26T06:43:19;85529.19;;;25.04;29.69
55486;BME280;49383;-25.924;28.194;2023-04-26T06:45:44;85532.08;;;25.23;29.77
55486;BME280;49383;-25.924;28.194;2023-04-26T06:48:09;85533.07;;;25.18;29.84
55486;BME280;49383;-25.924;28.194;2023-04-26T06:50:38;85533.04;;;25.28;29.78
55486;BME280;49383;-25.924;28.194;2023-04-26T06:53:00;85536.60;;;25.12;29.76
55486;BME280;49383;-25.924;28.194;2023-04-26T06:55:26;85538.17;;;25.09;29.82
55486;BME280;49383;-25.924;28.194;2023-04-26T06:57:52;85540.93;;;25.34;29.83
55486;BME280;49383;-25.924;28.194;2023-04-26T07:00:17;85540.82;;;25.16;29.84
55486;BME280;49383;-25.924;28.194;2023-04-26T07:02:44;85543.35;;;25.46;29.79
55486;BME280;49383;-25.924;28.194;2023-04-26T07:05:09;85547.28;;;25.47;29.82
55486;BME280;49383;-25.924;28.194;2023-04-26T07:07:34;85551.11;;;25.46;29.81
55486;BME280;49383;-25.924;28.194;2023-04-26T07:09:59;85551.31;;;25.24;29.88
55486;BME280;49383;-25.924;28.194;2023-04-26T07:12:24;85550.68;;;25.26;29.88
55486;BME280;49383;-25.924;28.194;2023-04-26T07:14:50;85552.83;;;25.29;29.90
55486;BME280;49383;-25.924;28.194;2023-04-26T07:17:15;85554.70;;;25.31;29.89
55486;BME280;49383;-25.924;28.194;2023-04-26T07:19:40;85556.86;;;25.31;29.93
55486;BME280;49383;-25.924;28.194;2023-04-26T07:22:05;85561.08;;;25.39;29.87
55486;BME280;49383;-25.924;28.194;2023-04-26T07:24:31;85560.37;;;25.34;29.95
55486;BME280;49383;-25.924;28.194;2023-04-26T07:26:56;85560.79;;;25.39;29.94
55486;BME280;49383;-25.924;28.194;2023-04-26T07:29:22;85562.13;;;25.42;29.95
55486;BME280;49383;-25.924;28.194;2023-04-26T07:31:47;85561.07;;;25.66;29.94
55486;BME280;49383;-25.924;28.194;2023-04-26T07:34:12;85560.86;;;25.45;29.97
55486;BME280;49383;-25.924;28.194;2023-04-26T07:36:40;85559.40;;;25.43;30.01
55486;BME280;49383;-25.924;28.194;2023-04-26T07:39:04;85559.65;;;25.41;30.03
55486;BME280;49383;-25.924;28.194;2023-04-26T07:41:29;85560.13;;;25.47;30.02
55486;BME280;49383;-25.924;28.194;2023-04-26T07:43:55;85560.71;;;25.49;30.03
55486;BME280;49383;-25.924;28.194;2023-04-26T07:46:20;85565.02;;;25.50;30.06
55486;BME280;49383;-25.924;28.194;2023-04-26T07:48:46;85563.16;;;25.47;30.09
55486;BME280;49383;-25.924;28.194;2023-04-26T07:51:11;85566.43;;;25.49;30.08
55486;BME280;49383;-25.924;28.194;2023-04-26T07:53:36;85567.58;;;25.52;30.11
55486;BME280;49383;-25.924;28.194;2023-04-26T07:56:04;85566.54;;;25.53;30.12
55486;BME280;49383;-25.924;28.194;2023-04-26T07:58:27;85566.17;;;25.57;30.11
55486;BME280;49383;-25.924;28.194;2023-04-26T08:00:52;85564.80;;;25.58;30.13
55486;BME280;49383;-25.924;28.194;2023-04-26T08:03:17;85561.20;;;25.60;30.11
55486;BME280;49383;-25.924;28.194;2023-04-26T08:05:43;85560.95;;;25.61;30.14
55486;BME280;49383;-25.924;28.194;2023-04-26T08:08:09;85555.01;;;26.13;30.11
55486;BME280;49383;-25.924;28.194;2023-04-26T08:10:35;85552.39;;;25.66;30.11
55486;BME280;49383;-25.924;28.194;2023-04-26T08:13:00;85548.79;;;25.68;30.11
55486;BME280;49383;-25.924;28.194;2023-04-26T08:15:26;85547.51;;;25.70;30.12
55486;BME280;49383;-25.924;28.194;2023-04-26T08:17:51;85544.30;;;25.72;30.11
55486;BME280;49383;-25.924;28.194;2023-04-26T08:20:16;85544.70;;;25.75;30.06
55486;BME280;49383;-25.924;28.194;2023-04-26T08:22:41;85545.66;;;25.77;30.12
55486;BME280;49383;-25.924;28.194;2023-04-26T08:25:08;85542.00;;;25.78;30.14
55486;BME280;49383;-25.924;28.194;2023-04-26T08:27:33;85538.93;;;25.81;30.11
55486;BME280;49383;-25.924;28.194;2023-04-26T08:29:58;85536.76;;;25.84;30.08
55486;BME280;49383;-25.924;28.194;2023-04-26T08:32:24;85537.03;;;25.85;30.07
55486;BME280;49383;-25.924;28.194;2023-04-26T08:34:50;85535.52;;;25.87;30.09
55486;BME280;49383;-25.924;28.194;2023-04-26T08:37:15;85535.16;;;25.89;30.08
55486;BME280;49383;-25.924;28.194;2023-04-26T08:39:41;85534.93;;;25.90;30.07
55486;BME280;49383;-25.924;28.194;2023-04-26T08:42:12;85534.44;;;25.92;30.09
55486;BME280;49383;-25.924;28.194;2023-04-26T08:44:34;85533.69;;;25.94;30.04
55486;BME280;49383;-25.924;28.194;2023-04-26T08:47:05;85532.16;;;25.96;30.10
55486;BME280;49383;-25.924;28.194;2023-04-26T08:49:29;85531.53;;;25.98;30.06
55486;BME280;49383;-25.924;28.194;2023-04-26T08:51:48;85533.64;;;26.00;30.06
55486;BME280;49383;-25.924;28.194;2023-04-26T08:54:14;85531.57;;;26.01;30.11
55486;BME280;49383;-25.924;28.194;2023-04-26T08:56:39;85527.10;;;26.02;30.09
55486;BME280;49383;-25.924;28.194;2023-04-26T08:59:04;85523.88;;;25.80;30.08
55486;BME280;49383;-25.924;28.194;2023-04-26T09:01:30;85523.42;;;26.03;30.08
55486;BME280;49383;-25.924;28.194;2023-04-26T09:03:59;85522.60;;;26.05;30.03
55486;BME280;49383;-25.924;28.194;2023-04-26T09:06:21;85521.82;;;25.84;30.07
55486;BME280;49383;-25.924;28.194;2023-04-26T09:08:46;85517.07;;;26.06;30.09
55486;BME280;49383;-25.924;28.194;2023-04-26T09:11:12;85512.23;;;26.07;30.07
55486;BME280;49383;-25.924;28.194;2023-04-26T09:13:37;85509.14;;;26.07;30.05
55486;BME280;49383;-25.924;28.194;2023-04-26T09:16:02;85506.07;;;26.08;30.04
55486;BME280;49383;-25.924;28.194;2023-04-26T09:18:27;85499.92;;;26.09;30.07
55486;BME280;49383;-25.924;28.194;2023-04-26T09:21:01;85498.14;;;26.32;30.05
55486;BME280;49383;-25.924;28.194;2023-04-26T09:23:18;85495.18;;;26.09;30.04
55486;BME280;49383;-25.924;28.194;2023-04-26T09:25:44;85491.15;;;26.10;30.07
55486;BME280;49383;-25.924;28.194;2023-04-26T09:30:38;85480.32;;;26.10;30.06
55486;BME280;49383;-25.924;28.194;2023-04-26T09:33:00;85474.65;;;26.10;30.10
55486;BME280;49383;-25.924;28.194;2023-04-26T09:35:29;85470.31;;;26.10;30.08
55486;BME280;49383;-25.924;28.194;2023-04-26T09:37:53;85466.29;;;26.10;30.10
55486;BME280;49383;-25.924;28.194;2023-04-26T09:40:19;85458.07;;;26.10;30.08
55486;BME280;49383;-25.924;28.194;2023-04-26T09:42:41;85451.46;;;26.11;30.07
55486;BME280;49383;-25.924;28.194;2023-04-26T09:45:07;85450.35;;;26.10;30.09
55486;BME280;49383;-25.924;28.194;2023-04-26T09:47:34;85445.37;;;26.10;30.10
55486;BME280;49383;-25.924;28.194;2023-04-26T09:49:57;85440.86;;;26.09;30.10
55486;BME280;49383;-25.924;28.194;2023-04-26T09:52:23;85436.00;;;26.09;30.12
55486;BME280;49383;-25.924;28.194;2023-04-26T09:54:50;85433.11;;;26.08;30.10
55486;BME280;49383;-25.924;28.194;2023-04-26T09:57:15;85429.75;;;26.07;30.15
55486;BME280;49383;-25.924;28.194;2023-04-26T09:59:42;85427.27;;;26.55;30.12
55486;BME280;49383;-25.924;28.194;2023-04-26T10:02:04;85425.15;;;26.06;30.14
55486;BME280;49383;-25.924;28.194;2023-04-26T10:04:31;85421.07;;;26.28;30.15
55486;BME280;49383;-25.924;28.194;2023-04-26T10:06:55;85420.34;;;26.05;30.16
55486;BME280;49383;-25.924;28.194;2023-04-26T10:09:21;85420.43;;;26.04;30.15
55486;BME280;49383;-25.924;28.194;2023-04-26T10:11:46;85413.79;;;26.04;30.18
55486;BME280;49383;-25.924;28.194;2023-04-26T10:14:12;85412.96;;;26.25;30.19
55486;BME280;49383;-25.924;28.194;2023-04-26T10:16:38;85407.94;;;26.24;29.96
55486;BME280;49383;-25.924;28.194;2023-04-26T10:19:02;85407.55;;;26.23;29.96
55486;BME280;49383;-25.924;28.194;2023-04-26T10:21:30;85407.49;;;26.11;30.09
55486;BME280;49383;-25.924;28.194;2023-04-26T10:23:53;85404.27;;;26.04;30.16
55486;BME280;49383;-25.924;28.194;2023-04-26T10:31:10;85402.90;;;26.19;30.23
55486;BME280;49383;-25.924;28.194;2023-04-26T10:33:35;85400.30;;;25.95;30.24
55486;BME280;49383;-25.924;28.194;2023-04-26T10:36:06;85401.17;;;25.95;30.24
55486;BME280;49383;-25.924;28.194;2023-04-26T10:38:26;85393.50;;;25.97;30.22
55486;BME280;49383;-25.924;28.194;2023-04-26T10:40:52;85393.03;;;25.94;30.24
55486;BME280;49383;-25.924;28.194;2023-04-26T10:45:43;85381.99;;;25.87;30.31
55486;BME280;49383;-25.924;28.194;2023-04-26T10:48:15;85380.06;;;26.35;30.32
55486;BME280;49383;-25.924;28.194;2023-04-26T10:50:32;85375.86;;;25.85;30.31
55486;BME280;49383;-25.924;28.194;2023-04-26T10:53:05;85371.72;;;25.84;30.34
55486;BME280;49383;-25.924;28.194;2023-04-26T10:57:51;85372.78;;;26.29;30.34
55486;BME280;49383;-25.924;28.194;2023-04-26T11:00:18;85370.66;;;26.00;30.37
55486;BME280;49383;-25.924;28.194;2023-04-26T11:02:43;85368.97;;;26.25;30.38
55486;BME280;49383;-25.924;28.194;2023-04-26T11:05:05;85364.62;;;26.25;30.35
55486;BME280;49383;-25.924;28.194;2023-04-26T11:07:36;85356.74;;;25.97;30.38
55486;BME280;49383;-25.924;28.194;2023-04-26T11:09:55;85357.28;;;25.74;30.40
55486;BME280;49383;-25.924;28.194;2023-04-26T11:12:21;85355.14;;;25.72;30.39
55486;BME280;49383;-25.924;28.194;2023-04-26T11:14:46;85352.24;;;25.93;30.43
55486;BME280;49383;-25.924;28.194;2023-04-26T11:17:12;85348.26;;;25.69;30.45
55486;BME280;49383;-25.924;28.194;2023-04-26T11:19:36;85344.74;;;25.68;30.45
55486;BME280;49383;-25.924;28.194;2023-04-26T11:22:07;85339.66;;;26.16;30.44
55486;BME280;49383;-25.924;28.194;2023-04-26T11:24:29;85336.05;;;25.88;30.46
55486;BME280;49383;-25.924;28.194;2023-04-26T11:26:53;85329.17;;;26.14;30.44
55486;BME280;49383;-25.924;28.194;2023-04-26T11:29:19;85329.00;;;26.13;30.45
55486;BME280;49383;-25.924;28.194;2023-04-26T11:31:52;85325.56;;;26.12;30.45
55486;BME280;49383;-25.924;28.194;2023-04-26T11:34:09;85319.84;;;26.12;30.46
55486;BME280;49383;-25.924;28.194;2023-04-26T11:36:37;85318.74;;;26.33;30.46
55486;BME280;49383;-25.924;28.194;2023-04-26T11:39:00;85314.42;;;25.83;30.46
55486;BME280;49383;-25.924;28.194;2023-04-26T11:41:26;85309.47;;;26.09;30.49
55486;BME280;49383;-25.924;28.194;2023-04-26T11:43:51;85310.63;;;25.82;30.48
55486;BME280;49383;-25.924;28.194;2023-04-26T11:46:20;85306.73;;;26.07;30.48
55486;BME280;49383;-25.924;28.194;2023-04-26T11:48:42;85298.72;;;26.06;30.50
55486;BME280;49383;-25.924;28.194;2023-04-26T11:51:08;85296.13;;;26.04;30.50
55486;BME280;49383;-25.924;28.194;2023-04-26T11:53:37;85290.53;;;26.04;30.51
55486;BME280;49383;-25.924;28.194;2023-04-26T11:55:58;85290.57;;;26.04;30.49
55486;BME280;49383;-25.924;28.194;2023-04-26T11:58:23;85286.75;;;25.76;30.51
55486;BME280;49383;-25.924;28.194;2023-04-26T12:00:56;85280.55;;;25.75;30.51
55486;BME280;49383;-25.924;28.194;2023-04-26T12:03:14;85278.86;;;26.02;30.52
55486;BME280;49383;-25.924;28.194;2023-04-26T12:05:40;85279.14;;;25.52;30.51
55486;BME280;49383;-25.924;28.194;2023-04-26T12:08:05;85275.33;;;25.73;30.51
55486;BME280;49383;-25.924;28.194;2023-04-26T12:10:35;85276.08;;;25.99;30.52
55486;BME280;49383;-25.924;28.194;2023-04-26T12:12:58;85277.11;;;25.50;30.53
55486;BME280;49383;-25.924;28.194;2023-04-26T12:15:24;85275.68;;;25.98;30.52
55486;BME280;49383;-25.924;28.194;2023-04-26T12:17:51;85269.22;;;25.97;30.52
55486;BME280;49383;-25.924;28.194;2023-04-26T12:20:13;85273.16;;;25.97;30.52
55486;BME280;49383;-25.924;28.194;2023-04-26T12:22:38;85270.47;;;25.97;30.51
55486;BME280;49383;-25.924;28.194;2023-04-26T12:25:07;85271.53;;;25.96;30.52
55486;BME280;49383;-25.924;28.194;2023-04-26T12:27:29;85273.92;;;25.69;30.51
55486;BME280;49383;-25.924;28.194;2023-04-26T12:29:55;85272.21;;;25.95;30.53
55486;BME280;49383;-25.924;28.194;2023-04-26T12:32:20;85269.53;;;25.94;30.53
55486;BME280;49383;-25.924;28.194;2023-04-26T12:34:45;85267.94;;;25.93;30.53
55486;BME280;49383;-25.924;28.194;2023-04-26T12:37:11;85267.22;;;26.15;30.53
55486;BME280;49383;-25.924;28.194;2023-04-26T12:39:37;85268.37;;;25.65;30.53
55486;BME280;49383;-25.924;28.194;2023-04-26T12:42:02;85269.84;;;25.64;30.52